Gardenville, PA

12:49 PM EDT on May 05, 2015 (GMT -0400)
Philadelphia Wings Airport | | Change Station
CLOSE
Current Station
Airport
Location: Philadelphia Wings Airport,
Elevation: 302 ft
Nearby Weather Stations

Elev 302 ft 40.14 °N, 75.27 °W | Updated 14 minutes ago

Partly Cloudy
Partly Cloudy
81 °F
Feels Like 81 °F
N
5
Wind Variable Wind from SSW

Today
High -- | Low -- °F
--% Chance of Precip.
Yesterday
High -- | Low -- °F
Precip. -- in
5:55 AM 7:59 PM
Full, 97% visible
Pressure 30.22 in
Visibility 10.0 miles
Clouds Scattered Clouds 5000 ft
Heat Index 81 °F
Dew Point 59 °F
Humidity 48%
Rainfall 0.00 in
Snow Depth Not available.
UV 9 out of 12
Pollen 9.20 out of 12
Air Quality Not available.
Flu Activity Sporadic
METAR KLOM 051635Z AUTO 21004KT 10SM SCT050 27/15 A3022 RMK AO1

More Conditions Fewer Conditions

Pressure 30.22 in
Visibility 10.0 miles
Clouds Scattered Clouds 5000 ft
Heat Index 81 °F
Dew Point 59 °F
Humidity 48%
Rainfall 0.00 in
Snow Depth Not available.
UV 9 out of 12
Pollen 9.20 out of 12
Air Quality Not available.
Flu Activity Sporadic
METAR KLOM 051635Z AUTO 21004KT 10SM SCT050 27/15 A3022 RMK AO1

More Conditions Fewer Conditions

Nowcast | as of 12:46 PM EDT on May 5, 2015

Another group of showers was moving east northeast through southeastern Pennsylvania and should be crossing portions of Berks County, including reading as well as Lehigh County between 115 PM and 2 PM. It possible the showers will be moving into western Chester...western Montgomery and upper Bucks counties around 230 PM.

×

10-Day Weather Forecast

Almanac

Astronomy

May. 05, 2015 Rise Set
Actual Time
Civil Twilight
Nautical Twilight
Astronomical Twilight
Moon
Length of Visible Light
Length of Day
Tomorrow will be .
, % of the Moon is Illuminated

Today's Extremes

State Highs State Lows

Community

WunderPhotos

Upload Photos

1,818,937 photos uploaded!

WunderBlogs® & News

Nearby

Air Quality

  Air Quality AQ Index Pollutant
Not available.

Snow Depth

Station Depth Elevation

Earthquake Activity

City Distance Mag. Time & Date
Minimum magnitude displayed is 2.5.

Coastal Water Temperatures

Place Temperature

Stations

Nearby Weather Stations

Station Location Temp. Windchill Dew Point Humidity Wind Precip. Elev Updated Type